Time;durP1;ratioP1;P1;durP2;ratioP2;P2;SDS_P1;SDS_P2;PMS_P1;PMS_P2;Temp;Humidity;BMP_temperature;BMP_pressure;BME280_temperature;BME280_humidity;BME280_pressure;Samples;Min_cycle;Max_cycle;Signal;HPM_P1;HPM_P2
2021/06/06 00:00:37;;;;;;;77.28;44.63;;;15.40;96.30;;;;;;3586647;40;20067;-74
2021/06/06 00:03:05;;;;;;;75.63;43.63;;;15.40;96.30;;;;;;3585273;40;20033;-74
2021/06/06 00:05:42;;;;;;;73.18;42.10;;;15.40;96.20;;;;;;3590898;39;20434;-74
2021/06/06 00:08:08;;;;;;;69.22;42.95;;;15.40;96.50;;;;;;3596125;39;20073;-74
2021/06/06 00:10:34;;;;;;;65.43;42.03;;;15.40;96.40;;;;;;3595234;39;20060;-75
2021/06/06 00:13:00;;;;;;;80.88;47.75;;;15.40;96.40;;;;;;3586064;40;20250;-73
2021/06/06 00:15:26;;;;;;;67.85;43.00;;;15.40;96.40;;;;;;3586319;40;20048;-74
2021/06/06 00:17:51;;;;;;;73.65;46.80;;;15.40;96.40;;;;;;3591226;40;20044;-74
2021/06/06 00:20:18;;;;;;;55.25;41.45;;;15.40;96.40;;;;;;3596323;39;20048;-75
2021/06/06 00:22:44;;;;;;;81.28;48.28;;;15.40;96.50;;;;;;3596508;39;20344;-74
2021/06/06 00:25:12;;;;;;;79.28;47.10;;;15.40;96.30;;;;;;3596444;39;20047;-75
2021/06/06 00:27:39;;;;;;;76.45;45.92;;;15.40;96.40;;;;;;3596572;39;20046;-75
2021/06/06 00:30:08;;;;;;;77.10;44.17;;;15.40;96.20;;;;;;3593117;39;20044;-74
2021/06/06 00:32:34;;;;;;;80.38;46.00;;;15.40;96.40;;;;;;3591863;39;20047;-75
2021/06/06 00:35:00;;;;;;;84.47;42.90;;;15.40;96.40;;;;;;3595911;39;20048;-76
2021/06/06 00:37:26;;;;;;;79.53;40.75;;;15.40;96.40;;;;;;3589718;39;20047;-75
2021/06/06 00:39:52;;;;;;;62.20;38.00;;;15.40;96.60;;;;;;3586388;40;20575;-75
2021/06/06 00:42:22;;;;;;;60.60;35.00;;;15.40;96.30;;;;;;3585920;40;20059;-76
2021/06/06 00:44:48;;;;;;;63.25;36.08;;;15.40;96.30;;;;;;3594117;39;20076;-76
2021/06/06 00:47:14;;;;;;;70.60;37.75;;;15.40;96.50;;;;;;3594984;39;20283;-75
2021/06/06 00:49:40;;;;;;;69.22;36.65;;;15.40;96.40;;;;;;3596289;39;20047;-76
2021/06/06 00:52:07;;;;;;;67.03;33.60;;;15.40;96.40;;;;;;3589523;39;20050;-75
2021/06/06 00:54:46;;;;;;;56.95;30.27;;;15.40;96.40;;;;;;3593993;39;20040;-76
2021/06/06 00:57:22;;;;;;;57.55;30.60;;;15.30;96.50;;;;;;3585797;40;20345;-76
2021/06/06 01:00:02;;;;;;;53.08;27.98;;;15.30;96.40;;;;;;3594619;39;20326;-75
2021/06/06 01:02:28;;;;;;;52.45;30.45;;;15.30;96.60;;;;;;3591012;39;20044;-75
2021/06/06 01:04:54;;;;;;;64.07;33.15;;;15.30;96.50;;;;;;3586728;40;20129;-75
2021/06/06 01:07:20;;;;;;;66.30;34.22;;;15.30;96.50;;;;;;3590156;40;20070;-75
2021/06/06 01:09:46;;;;;;;62.53;32.03;;;15.30;96.60;;;;;;3595939;39;20036;-75
2021/06/06 01:12:24;;;;;;;57.78;31.88;;;15.20;96.60;;;;;;3588627;39;20055;-76
2021/06/06 01:14:58;;;;;;;59.40;33.50;;;15.20;96.50;;;;;;3586658;40;20085;-76
2021/06/06 01:17:33;;;;;;;62.33;31.95;;;15.20;96.60;;;;;;3596149;39;20277;-75
2021/06/06 01:20:02;;;;;;;57.58;31.90;;;15.20;96.50;;;;;;3594465;39;20337;-75
2021/06/06 01:22:46;;;;;;;57.47;32.63;;;15.20;96.70;;;;;;3580958;40;20090;-75
2021/06/06 01:25:23;;;;;;;62.17;32.22;;;15.30;96.90;;;;;;3585652;40;20044;-76
2021/06/06 01:28:31;;;;;;;86.30;37.70;;;15.20;96.70;;;;;;3586205;40;20175;-75
2021/06/06 01:31:00;;;;;;;56.35;29.95;;;15.20;96.60;;;;;;3589834;39;20028;-76
2021/06/06 01:33:37;;;;;;;67.57;34.72;;;15.30;96.60;;;;;;3589398;39;20111;-75
2021/06/06 01:36:08;;;;;;;66.53;34.58;;;15.20;96.60;;;;;;3590507;39;20044;-74
2021/06/06 01:38:46;;;;;;;73.18;36.28;;;15.20;96.70;;;;;;3586390;40;20036;-76
2021/06/06 01:41:15;;;;;;;69.90;36.03;;;15.20;96.60;;;;;;3585840;40;20095;-76
2021/06/06 01:43:47;;;;;;;68.22;33.08;;;15.20;96.70;;;;;;3587242;39;20367;-75
2021/06/06 01:46:19;;;;;;;72.95;34.95;;;15.20;96.70;;;;;;3585082;40;20044;-75
2021/06/06 01:48:46;;;;;;;84.03;35.95;;;15.20;96.60;;;;;;3585585;40;20238;-75
2021/06/06 01:51:26;;;;;;;86.07;37.35;;;15.20;96.70;;;;;;3584762;40;20056;-76
2021/06/06 01:53:52;;;;;;;76.95;37.70;;;15.10;96.80;;;;;;3593795;39;20094;-76
2021/06/06 01:56:23;;;;;;;68.93;34.03;;;15.10;96.70;;;;;;3594269;39;20066;-75
2021/06/06 01:58:52;;;;;;;77.82;35.85;;;15.10;96.70;;;;;;3585865;40;20072;-76
2021/06/06 02:01:20;;;;;;;77.13;36.35;;;15.10;96.70;;;;;;3585665;40;20609;-75
2021/06/06 02:03:53;;;;;;;80.75;36.80;;;15.10;96.80;;;;;;3585831;40;20428;-75
2021/06/06 02:06:22;;;;;;;72.25;34.33;;;15.10;96.80;;;;;;3585479;40;20048;-76
2021/06/06 02:08:48;;;;;;;67.30;32.45;;;15.10;96.80;;;;;;3585814;40;20130;-75
2021/06/06 02:11:24;;;;;;;81.50;36.15;;;15.00;96.80;;;;;;3588104;40;20056;-75
2021/06/06 02:13:51;;;;;;;83.13;37.45;;;15.00;96.80;;;;;;3591799;39;20081;-75
2021/06/06 02:16:22;;;;;;;69.28;32.85;;;15.00;96.90;;;;;;3595059;39;20054;-75
2021/06/06 02:18:53;;;;;;;69.88;34.10;;;15.00;96.90;;;;;;3596192;39;20040;-75
2021/06/06 02:21:20;;;;;;;76.13;37.92;;;15.00;96.90;;;;;;3593272;39;20596;-75
2021/06/06 02:23:47;;;;;;;94.93;40.25;;;15.00;96.90;;;;;;3596517;39;20044;-75
2021/06/06 02:26:35;;;;;;;85.93;40.17;;;15.00;97.00;;;;;;3596949;39;20040;-75
2021/06/06 02:29:19;;;;;;;82.60;37.28;;;15.00;97.10;;;;;;3596057;39;20031;-75
2021/06/06 02:31:58;;;;;;;67.22;34.80;;;15.00;97.00;;;;;;3580598;40;20047;-75
2021/06/06 02:34:27;;;;;;;71.97;35.10;;;15.00;96.90;;;;;;3576861;40;20056;-75
2021/06/06 02:37:01;;;;;;;71.22;33.58;;;15.00;96.80;;;;;;3587316;40;20319;-75
2021/06/06 02:39:32;;;;;;;75.15;33.15;;;15.00;96.90;;;;;;3597098;39;20100;-75
2021/06/06 02:42:06;;;;;;;61.78;32.47;;;15.00;97.00;;;;;;3597002;39;20040;-75
2021/06/06 02:44:58;;;;;;;63.92;32.35;;;15.00;97.00;;;;;;3595598;39;20047;-75
2021/06/06 02:47:28;;;;;;;62.85;32.80;;;15.00;96.90;;;;;;3597077;39;20063;-76
2021/06/06 02:50:01;;;;;;;58.55;31.45;;;14.90;96.90;;;;;;3596396;39;20055;-77
2021/06/06 02:52:39;;;;;;;49.67;29.50;;;14.90;96.90;;;;;;3597044;39;20258;-76
2021/06/06 02:55:19;;;;;;;41.38;25.23;;;14.90;97.30;;;;;;3596746;39;20063;-75
2021/06/06 02:57:54;;;;;;;35.85;24.23;;;14.90;96.80;;;;;;3590709;39;20040;-75
2021/06/06 03:00:36;;;;;;;38.92;23.17;;;14.90;97.20;;;;;;3587269;39;20357;-76
2021/06/06 03:03:08;;;;;;;27.75;20.48;;;14.80;96.80;;;;;;3596566;39;20036;-75
2021/06/06 03:05:35;;;;;;;30.35;22.48;;;14.90;97.00;;;;;;3596868;39;20040;-75
2021/06/06 03:08:05;;;;;;;24.58;18.88;;;14.80;96.90;;;;;;3596788;39;20048;-75
2021/06/06 03:10:35;;;;;;;23.48;19.23;;;14.80;96.80;;;;;;3596929;39;20399;-75
2021/06/06 03:13:07;;;;;;;24.52;19.52;;;14.80;96.90;;;;;;3604269;39;20044;-75
2021/06/06 03:15:37;;;;;;;26.10;19.70;;;14.90;97.00;;;;;;3596657;39;20043;-75
2021/06/06 03:18:05;;;;;;;24.50;21.17;;;14.80;96.80;;;;;;3596662;39;20048;-75
2021/06/06 03:20:39;;;;;;;21.17;16.77;;;14.80;96.90;;;;;;3596668;39;20093;-76
2021/06/06 03:23:06;;;;;;;;;;;14.80;96.80;;;;;;3596195;39;20345;-75
2021/06/06 03:25:42;;;;;;;24.88;18.98;;;14.80;97.20;;;;;;3596759;39;19939;-76
2021/06/06 03:28:11;;;;;;;24.52;20.15;;;14.80;96.80;;;;;;3596412;39;20043;-75
2021/06/06 03:30:50;;;;;;;24.83;21.25;;;14.80;96.90;;;;;;3591252;39;20485;-75
2021/06/06 03:33:20;;;;;;;28.00;21.65;;;14.80;97.00;;;;;;3586067;40;20121;-75
2021/06/06 03:35:46;;;;;;;29.70;25.38;;;14.80;97.00;;;;;;3591759;40;20422;-76
2021/06/06 03:38:14;;;;;;;33.05;26.30;;;14.80;96.90;;;;;;3596850;39;20298;-76
2021/06/06 03:40:45;;;;;;;32.78;24.45;;;14.80;96.80;;;;;;3604231;39;20345;-76
2021/06/06 03:43:14;;;;;;;29.98;24.30;;;14.80;96.80;;;;;;3595221;39;20035;-75
2021/06/06 03:45:40;;;;;;;29.33;24.10;;;14.80;96.80;;;;;;3588318;39;20036;-75
2021/06/06 03:48:06;;;;;;;28.42;21.00;;;14.80;96.90;;;;;;3586358;40;20107;-76
2021/06/06 03:50:34;;;;;;;27.58;21.70;;;14.90;97.00;;;;;;3587554;40;20059;-75
2021/06/06 03:53:00;;;;;;;26.85;21.95;;;14.80;96.90;;;;;;3595442;39;20158;-75
2021/06/06 03:55:26;;;;;;;30.10;21.83;;;14.80;96.80;;;;;;3595776;40;20055;-75
2021/06/06 03:57:53;;;;;;;34.13;21.98;;;14.90;97.20;;;;;;3589506;39;20874;-75
2021/06/06 04:00:35;;;;;;;38.22;25.92;;;14.80;96.90;;;;;;3595575;39;20047;-75
2021/06/06 04:03:01;;;;;;;32.10;22.15;;;14.80;96.90;;;;;;3595535;39;20044;-76
2021/06/06 04:05:28;;;;;;;32.90;23.65;;;14.90;96.90;;;;;;3596576;39;20149;-75
2021/06/06 04:07:57;;;;;;;33.88;23.67;;;14.90;97.00;;;;;;3596929;39;20290;-76
2021/06/06 04:10:24;;;;;;;36.08;22.85;;;14.90;96.90;;;;;;3596415;39;20782;-75
2021/06/06 04:12:51;;;;;;;33.78;23.60;;;14.80;96.90;;;;;;3594921;39;20047;-75
2021/06/06 04:15:18;;;;;;;30.35;23.00;;;14.90;97.00;;;;;;3596051;39;20093;-75
2021/06/06 04:17:45;;;;;;;36.92;21.17;;;14.90;97.00;;;;;;3591939;39;20032;-75
2021/06/06 04:20:12;;;;;;;29.08;21.27;;;14.80;97.00;;;;;;3585375;40;20040;-75
2021/06/06 04:22:38;;;;;;;25.70;21.20;;;14.90;97.10;;;;;;3591787;40;20048;-75
2021/06/06 04:25:06;;;;;;;27.38;19.10;;;14.80;97.00;;;;;;3590369;39;20036;-75
2021/06/06 04:27:32;;;;;;;22.90;20.48;;;14.80;96.90;;;;;;3588522;40;20056;-75
2021/06/06 04:29:59;;;;;;;28.77;21.80;;;14.80;97.00;;;;;;3594667;39;20074;-75
2021/06/06 04:32:25;;;;;;;27.52;22.02;;;14.80;97.00;;;;;;3596560;39;20047;-75
2021/06/06 04:34:51;;;;;;;28.25;21.65;;;14.80;97.10;;;;;;3596433;39;20105;-76
2021/06/06 04:37:18;;;;;;;30.23;22.88;;;14.80;97.00;;;;;;3596252;39;20048;-75
2021/06/06 04:39:44;;;;;;;31.13;23.67;;;14.80;97.10;;;;;;3602828;39;20140;-76
2021/06/06 04:42:13;;;;;;;30.48;24.55;;;14.80;97.30;;;;;;3603712;39;20060;-75
2021/06/06 04:44:39;;;;;;;33.88;24.17;;;14.80;97.00;;;;;;3580736;40;20032;-76
2021/06/06 04:47:09;;;;;;;37.38;26.35;;;14.80;97.00;;;;;;3593948;39;20043;-75
2021/06/06 04:49:40;;;;;;;34.67;26.20;;;14.80;97.00;;;;;;3603938;39;20054;-76
2021/06/06 04:52:08;;;;;;;36.25;23.73;;;14.80;97.00;;;;;;3596143;39;20046;-75
2021/06/06 04:54:34;;;;;;;28.10;22.80;;;14.80;97.00;;;;;;3595023;39;20404;-76
2021/06/06 04:57:00;;;;;;;33.40;23.70;;;14.80;96.90;;;;;;3592093;39;20338;-75
2021/06/06 04:59:26;;;;;;;33.35;23.30;;;14.80;97.00;;;;;;3587185;39;20044;-76
2021/06/06 05:01:53;;;;;;;30.90;22.42;;;14.90;97.00;;;;;;3594995;39;20073;-76
2021/06/06 05:04:18;;;;;;;33.05;24.48;;;14.90;96.90;;;;;;3585874;40;20080;-75
2021/06/06 05:06:45;;;;;;;34.80;22.65;;;14.90;97.00;;;;;;3586229;40;20059;-75
2021/06/06 05:09:11;;;;;;;36.67;24.80;;;14.90;96.90;;;;;;3593920;40;20047;-75
2021/06/06 05:11:37;;;;;;;35.45;24.73;;;14.90;96.90;;;;;;3596418;39;20042;-76
2021/06/06 05:14:03;;;;;;;35.92;25.98;;;14.90;96.90;;;;;;3596186;39;20047;-75
2021/06/06 05:16:30;;;;;;;35.60;26.00;;;14.90;97.00;;;;;;3594976;39;20327;-75
2021/06/06 05:18:56;;;;;;;36.85;25.73;;;14.90;97.20;;;;;;3586255;40;20056;-75
2021/06/06 05:21:26;;;;;;;35.65;24.20;;;14.90;97.00;;;;;;3577160;40;20060;-75
2021/06/06 05:23:52;;;;;;;32.05;22.58;;;14.90;97.00;;;;;;3596270;39;20088;-76
2021/06/06 05:26:18;;;;;;;29.42;19.95;;;14.90;97.10;;;;;;3595833;39;20036;-75
2021/06/06 05:28:46;;;;;;;34.03;20.50;;;14.90;97.10;;;;;;3595324;39;20148;-76
2021/06/06 05:31:13;;;;;;;28.48;19.83;;;14.90;97.00;;;;;;3593155;39;20043;-75
2021/06/06 05:33:39;;;;;;;24.00;18.15;;;14.90;97.10;;;;;;3595936;39;20052;-75
2021/06/06 05:36:06;;;;;;;26.63;19.77;;;14.90;97.00;;;;;;3595823;39;20407;-76
2021/06/06 05:38:33;;;;;;;28.15;19.88;;;14.90;97.10;;;;;;3596259;39;20048;-76
2021/06/06 05:41:00;;;;;;;33.20;19.92;;;14.90;97.10;;;;;;3595949;39;20141;-75
2021/06/06 05:43:26;;;;;;;27.83;19.17;;;15.00;97.10;;;;;;3593067;40;20036;-76
2021/06/06 05:45:57;;;;;;;16.67;14.65;;;14.90;97.10;;;;;;3591176;39;20052;-76
2021/06/06 05:48:24;;;;;;;22.48;15.73;;;14.90;97.20;;;;;;3590809;39;20220;-76
2021/06/06 05:50:52;;;;;;;15.73;13.45;;;14.90;97.20;;;;;;3591551;39;20067;-76
2021/06/06 05:53:18;;;;;;;17.83;13.38;;;14.90;97.30;;;;;;3593668;39;20044;-75
2021/06/06 05:55:44;;;;;;;12.82;10.30;;;14.90;97.40;;;;;;3592885;39;20044;-75
2021/06/06 05:58:12;;;;;;;10.85;8.68;;;14.90;97.40;;;;;;3590215;39;20121;-76
2021/06/06 06:00:41;;;;;;;11.05;9.07;;;14.90;97.40;;;;;;3595925;39;20039;-75
2021/06/06 06:03:08;;;;;;;9.98;8.20;;;14.90;97.40;;;;;;3596692;39;20043;-76
2021/06/06 06:05:35;;;;;;;9.32;8.32;;;14.90;97.40;;;;;;3596918;39;20433;-75
2021/06/06 06:08:24;;;;;;;9.05;8.18;;;14.90;97.40;;;;;;3593118;39;20068;-75
2021/06/06 06:10:52;;;;;;;13.15;11.93;;;14.90;97.50;;;;;;3592344;39;20043;-75
2021/06/06 06:13:20;;;;;;;11.60;10.27;;;14.90;97.50;;;;;;3592769;39;20325;-75
2021/06/06 06:15:48;;;;;;;10.50;9.32;;;14.90;97.60;;;;;;3594074;39;20089;-76
2021/06/06 06:18:22;;;;;;;11.50;10.32;;;14.90;97.40;;;;;;3592569;40;20055;-76
2021/06/06 06:20:51;;;;;;;11.38;10.02;;;14.90;97.50;;;;;;3594798;39;20032;-75
2021/06/06 06:23:17;;;;;;;12.30;10.13;;;15.00;97.60;;;;;;3593669;39;20040;-74
2021/06/06 06:25:43;;;;;;;11.73;9.60;;;14.90;97.50;;;;;;3596230;39;20301;-76
2021/06/06 06:28:10;;;;;;;13.38;10.32;;;15.00;97.60;;;;;;3596001;39;20055;-76
2021/06/06 06:30:38;;;;;;;14.30;12.30;;;15.00;97.60;;;;;;3593541;39;20048;-74
2021/06/06 06:33:06;;;;;;;16.27;11.98;;;15.00;97.70;;;;;;3591334;39;20122;-74
2021/06/06 06:35:33;;;;;;;14.82;12.45;;;15.00;97.70;;;;;;3593060;40;20051;-74
2021/06/06 06:37:59;;;;;;;13.20;11.25;;;15.00;97.70;;;;;;3593010;39;20055;-74
2021/06/06 06:40:25;;;;;;;12.85;9.93;;;15.00;97.90;;;;;;3592802;39;20043;-75
2021/06/06 06:42:52;;;;;;;10.30;9.27;;;14.90;97.70;;;;;;3593153;39;20068;-76
2021/06/06 06:45:24;;;;;;;9.35;8.45;;;15.00;97.70;;;;;;3593541;39;20048;-75
2021/06/06 06:47:50;;;;;;;7.05;6.35;;;15.00;97.60;;;;;;3596058;39;20677;-75
2021/06/06 06:50:18;;;;;;;9.50;7.43;;;15.00;97.60;;;;;;3595383;39;20072;-76
2021/06/06 06:52:45;;;;;;;8.63;6.88;;;15.00;97.70;;;;;;3595928;39;20039;-74
2021/06/06 06:55:17;;;;;;;7.63;6.22;;;15.00;97.60;;;;;;3594545;39;20040;-76
2021/06/06 06:57:44;;;;;;;7.22;6.53;;;15.00;97.60;;;;;;3587800;40;20055;-73
2021/06/06 07:00:14;;;;;;;7.18;6.40;;;15.00;97.70;;;;;;3591302;40;20052;-74
2021/06/06 07:02:41;;;;;;;8.90;7.88;;;15.00;97.70;;;;;;3593961;39;20042;-74
2021/06/06 07:05:07;;;;;;;9.32;8.30;;;15.00;97.70;;;;;;3593931;39;20048;-74
2021/06/06 07:07:33;;;;;;;9.27;8.27;;;15.10;97.80;;;;;;3592483;39;20080;-73
2021/06/06 07:09:59;;;;;;;10.38;9.27;;;15.00;97.60;;;;;;3592210;39;20070;-74
2021/06/06 07:12:25;;;;;;;11.20;10.18;;;15.10;97.70;;;;;;3593528;39;20040;-75
2021/06/06 07:14:51;;;;;;;15.32;12.60;;;15.00;97.70;;;;;;3593799;39;20120;-74
2021/06/06 07:17:17;;;;;;;18.05;13.57;;;15.00;97.70;;;;;;3594735;39;20043;-74
2021/06/06 07:19:43;;;;;;;19.52;13.65;;;15.00;97.70;;;;;;3594196;39;20043;-75
2021/06/06 07:22:09;;;;;;;19.08;13.57;;;15.00;97.70;;;;;;3594480;39;20524;-75
2021/06/06 07:24:35;;;;;;;15.32;13.50;;;15.00;97.70;;;;;;3595439;39;20044;-74
2021/06/06 07:27:01;;;;;;;15.30;13.10;;;15.00;97.60;;;;;;3596269;39;20050;-73
2021/06/06 07:29:36;;;;;;;14.30;12.35;;;15.00;97.60;;;;;;3590581;39;20044;-74
2021/06/06 07:32:04;;;;;;;14.68;11.20;;;15.00;97.70;;;;;;3590867;39;20048;-74
2021/06/06 07:34:31;;;;;;;11.82;9.80;;;14.90;97.60;;;;;;3592290;39;20331;-74
2021/06/06 07:37:02;;;;;;;12.05;10.85;;;15.00;97.60;;;;;;3592779;40;20129;-75
2021/06/06 07:39:37;;;;;;;11.40;10.20;;;15.00;97.70;;;;;;3594080;39;20059;-74
2021/06/06 07:42:09;;;;;;;16.17;11.10;;;14.90;97.60;;;;;;3594081;40;20035;-74
2021/06/06 07:44:35;;;;;;;14.80;11.50;;;15.00;97.80;;;;;;3593789;39;20059;-74
2021/06/06 07:47:06;;;;;;;13.75;11.05;;;15.00;97.70;;;;;;3594370;39;20087;-74
2021/06/06 07:49:37;;;;;;;15.70;13.52;;;15.00;97.60;;;;;;3596390;39;20072;-77
2021/06/06 07:52:06;;;;;;;13.13;11.50;;;15.00;97.70;;;;;;3593231;39;20043;-75
2021/06/06 07:54:32;;;;;;;18.35;13.70;;;15.00;97.60;;;;;;3590385;40;20044;-77
2021/06/06 07:57:00;;;;;;;14.70;11.82;;;15.00;97.70;;;;;;3588244;39;20098;-76
2021/06/06 07:59:26;;;;;;;12.43;10.48;;;15.00;97.90;;;;;;3592487;40;20048;-78
2021/06/06 08:01:52;;;;;;;13.82;12.38;;;15.00;97.70;;;;;;3593054;39;20048;-76
2021/06/06 08:04:18;;;;;;;13.40;11.15;;;15.00;97.80;;;;;;3594731;39;20086;-76
2021/06/06 08:06:45;;;;;;;11.65;10.48;;;15.00;97.80;;;;;;3594828;39;20036;-76
2021/06/06 08:09:11;;;;;;;9.60;8.60;;;15.00;97.80;;;;;;3591627;39;20094;-76
2021/06/06 08:11:38;;;;;;;11.93;10.75;;;15.00;97.80;;;;;;3594161;39;20035;-75
2021/06/06 08:14:04;;;;;;;10.70;9.70;;;15.00;97.80;;;;;;3593929;39;20323;-77
2021/06/06 08:16:31;;;;;;;10.43;9.27;;;15.00;97.80;;;;;;3594458;40;20231;-77
2021/06/06 08:18:57;;;;;;;9.50;8.43;;;15.10;98.00;;;;;;3595544;39;20069;-78
2021/06/06 08:21:27;;;;;;;9.18;8.32;;;15.10;97.80;;;;;;3594111;39;20121;-78
2021/06/06 08:23:53;;;;;;;9.18;8.30;;;15.10;97.90;;;;;;3592142;40;20048;-78
2021/06/06 08:26:24;;;;;;;8.75;7.85;;;15.20;97.90;;;;;;3590552;39;20044;-78
2021/06/06 08:28:52;;;;;;;7.38;6.68;;;15.20;98.20;;;;;;3593308;39;20024;-74
2021/06/06 08:31:20;;;;;;;9.50;8.45;;;15.30;97.90;;;;;;3591649;39;20498;-74
2021/06/06 08:33:47;;;;;;;9.43;8.52;;;15.30;97.80;;;;;;3593947;39;20062;-76
2021/06/06 08:36:18;;;;;;;8.73;7.90;;;15.30;97.80;;;;;;3593224;40;20128;-78
2021/06/06 08:38:44;;;;;;;8.75;7.90;;;15.30;98.00;;;;;;3594668;39;20051;-78
2021/06/06 08:41:16;;;;;;;8.60;7.72;;;15.40;97.70;;;;;;3594828;39;20040;-77
2021/06/06 08:43:58;;;;;;;8.23;7.43;;;15.30;97.70;;;;;;3593727;39;20062;-75
2021/06/06 08:46:25;;;;;;;8.82;7.93;;;15.40;97.80;;;;;;3595677;39;20068;-76
2021/06/06 08:48:51;;;;;;;9.63;8.55;;;15.40;97.70;;;;;;3593207;39;20048;-77
2021/06/06 08:51:47;;;;;;;9.05;8.25;;;15.40;97.60;;;;;;3593081;39;20046;-76
2021/06/06 08:54:35;;;;;;;7.13;6.43;;;15.40;97.70;;;;;;3591184;39;20050;-76
2021/06/06 08:57:08;;;;;;;9.70;7.18;;;15.40;97.70;;;;;;3589868;39;20051;-77
2021/06/06 08:59:39;;;;;;;;;;;15.40;97.70;;;;;;3593407;39;20063;-76
2021/06/06 09:02:15;;;;;;;8.85;7.95;;;15.40;97.50;;;;;;3592224;39;20327;-74
2021/06/06 09:04:42;;;;;;;9.27;8.10;;;15.40;97.70;;;;;;3595284;39;20036;-75
2021/06/06 09:07:42;;;;;;;7.70;6.90;;;15.40;97.70;;;;;;3594467;39;20045;-75
2021/06/06 09:10:20;;;;;;;11.55;8.35;;;15.40;97.60;;;;;;3591324;40;20032;-75
2021/06/06 09:12:46;;;;;;;7.75;7.05;;;15.40;97.60;;;;;;3593619;39;20048;-76
2021/06/06 09:15:14;;;;;;;8.80;7.95;;;15.50;97.90;;;;;;3594969;39;20375;-76
2021/06/06 09:17:45;;;;;;;13.15;10.02;;;15.50;97.60;;;;;;3595259;39;20048;-77
2021/06/06 09:20:23;;;;;;;8.35;7.55;;;15.50;97.60;;;;;;3595785;39;20044;-74
2021/06/06 09:22:49;;;;;;;15.05;9.88;;;15.50;97.50;;;;;;3591093;39;20068;-77
2021/06/06 09:25:28;;;;;;;10.25;9.18;;;15.50;97.60;;;;;;3590620;40;20323;-74
2021/06/06 09:28:06;;;;;;;10.05;8.30;;;15.50;97.60;;;;;;3591817;39;20036;-74
2021/06/06 09:30:33;;;;;;;10.13;8.60;;;15.50;97.90;;;;;;3588212;39;20040;-77
2021/06/06 09:33:27;;;;;;;12.27;10.48;;;15.50;97.60;;;;;;3592197;39;20270;-73
2021/06/06 09:36:01;;;;;;;14.07;12.25;;;15.50;97.70;;;;;;3592518;39;20102;-75
2021/06/06 09:38:29;;;;;;;16.52;13.40;;;15.50;97.60;;;;;;3594174;39;20079;-77
2021/06/06 09:41:07;;;;;;;19.52;14.68;;;15.50;97.60;;;;;;3595254;39;20038;-75
2021/06/06 09:43:33;;;;;;;19.25;14.38;;;15.60;97.60;;;;;;3593838;40;20036;-78
2021/06/06 09:46:11;;;;;;;20.65;15.13;;;15.60;97.60;;;;;;3592277;39;20043;-77
2021/06/06 09:48:41;;;;;;;18.92;14.68;;;15.60;97.60;;;;;;3590350;39;20040;-77
2021/06/06 09:51:31;;;;;;;19.05;14.95;;;15.60;97.60;;;;;;3593207;39;20259;-75
2021/06/06 09:54:31;;;;;;;18.23;14.50;;;15.60;97.60;;;;;;3591438;39;20036;-79
2021/06/06 09:57:01;;;;;;;15.18;12.20;;;15.60;97.60;;;;;;3579382;39;20797;-78
2021/06/06 09:59:34;;;;;;;16.38;12.68;;;15.70;97.60;;;;;;3594228;39;20364;-79
2021/06/06 10:02:11;;;;;;;14.43;12.27;;;15.80;97.60;;;;;;3594215;39;20052;-79
2021/06/06 10:04:44;;;;;;;14.90;12.35;;;15.80;97.60;;;;;;3595380;39;20062;-73
2021/06/06 10:07:33;;;;;;;14.05;12.55;;;15.90;97.70;;;;;;3593072;39;20067;-76
2021/06/06 10:10:00;;;;;;;13.82;9.85;;;16.00;97.60;;;;;;3591794;40;20036;-78
2021/06/06 10:12:39;;;;;;;14.70;12.15;;;16.10;97.60;;;;;;3594602;39;20073;-76
2021/06/06 10:15:22;;;;;;;12.18;10.02;;;16.10;97.60;;;;;;3602690;39;20039;-74
2021/06/06 10:17:59;;;;;;;11.17;10.00;;;16.20;97.40;;;;;;3593692;39;20223;-78
2021/06/06 10:20:30;;;;;;;12.85;11.05;;;16.20;97.50;;;;;;3592443;39;20036;-74
2021/06/06 10:23:25;;;;;;;13.07;10.65;;;16.20;97.50;;;;;;3590300;39;20250;-74
2021/06/06 10:25:58;;;;;;;10.23;9.00;;;16.20;97.30;;;;;;3588455;40;20031;-75
2021/06/06 10:28:32;;;;;;;9.55;8.57;;;16.20;97.40;;;;;;3592582;40;20125;-75
2021/06/06 10:31:05;;;;;;;9.10;7.90;;;16.20;97.40;;;;;;3592279;39;20348;-78
2021/06/06 10:33:36;;;;;;;10.63;9.63;;;16.30;97.40;;;;;;3594135;40;20048;-77
2021/06/06 10:36:03;;;;;;;8.77;7.82;;;16.30;97.40;;;;;;3594259;39;20055;-76
2021/06/06 10:38:37;;;;;;;8.18;7.35;;;16.30;97.40;;;;;;3594782;39;20334;-78
2021/06/06 10:41:27;;;;;;;8.07;7.28;;;16.30;97.40;;;;;;3595193;39;20311;-75
2021/06/06 10:44:15;;;;;;;6.95;6.30;;;16.30;97.40;;;;;;3587191;40;20054;-79
2021/06/06 10:47:15;;;;;;;8.35;7.55;;;16.30;97.30;;;;;;3592075;39;20142;-79
2021/06/06 10:50:04;;;;;;;7.72;6.97;;;16.20;97.10;;;;;;3591954;39;20047;-80
2021/06/06 10:52:38;;;;;;;8.68;7.90;;;16.20;97.10;;;;;;3595422;39;20042;-77
2021/06/06 10:55:30;;;;;;;9.18;8.27;;;16.20;97.30;;;;;;3594166;39;20472;-77
2021/06/06 10:58:08;;;;;;;8.13;7.25;;;16.20;97.20;;;;;;3591521;39;20033;-75
2021/06/06 11:00:40;;;;;;;11.30;10.05;;;16.20;97.20;;;;;;3594534;40;20044;-75
2021/06/06 11:03:11;;;;;;;9.43;8.40;;;16.10;97.30;;;;;;3596520;39;20047;-75
2021/06/06 11:05:58;;;;;;;11.30;10.20;;;16.20;97.30;;;;;;3589688;40;20101;-75
2021/06/06 11:08:27;;;;;;;9.07;8.18;;;16.10;97.10;;;;;;3591895;40;20047;-75
2021/06/06 11:10:54;;;;;;;10.20;9.20;;;16.10;97.20;;;;;;3595955;39;20330;-76
2021/06/06 11:13:29;;;;;;;9.48;8.57;;;16.10;97.30;;;;;;3596777;39;20055;-79
2021/06/06 11:16:06;;;;;;;10.75;9.65;;;16.10;97.30;;;;;;3592108;39;20051;-80
2021/06/06 11:18:43;;;;;;;10.75;9.52;;;16.10;97.30;;;;;;3593436;40;20063;-80
2021/06/06 11:21:09;;;;;;;10.07;9.02;;;16.10;97.40;;;;;;3589114;39;20066;-79
2021/06/06 11:23:41;;;;;;;9.82;8.77;;;16.10;97.40;;;;;;3593687;39;20048;-78
2021/06/06 11:26:36;;;;;;;10.50;9.50;;;16.20;97.40;;;;;;3593868;39;20347;-79
2021/06/06 11:29:15;;;;;;;13.95;10.20;;;16.20;97.40;;;;;;3592252;39;20032;-80
2021/06/06 11:32:21;;;;;;;11.48;8.98;;;16.20;97.40;;;;;;3595229;39;20036;-80
2021/06/06 11:35:05;;;;;;;12.48;11.35;;;16.20;97.30;;;;;;3596256;39;20247;-80
2021/06/06 11:37:43;;;;;;;11.95;10.73;;;16.20;97.20;;;;;;3593657;39;20271;-79
2021/06/06 11:40:38;;;;;;;10.82;9.73;;;16.20;97.30;;;;;;3586623;39;20040;-78
2021/06/06 11:43:28;;;;;;;12.85;10.70;;;16.20;97.30;;;;;;3588234;39;20044;-78
2021/06/06 11:46:25;;;;;;;14.32;12.90;;;16.20;97.20;;;;;;3591241;40;20040;-79
2021/06/06 11:49:01;;;;;;;11.35;10.18;;;16.20;97.20;;;;;;3593184;39;20047;-76
2021/06/06 11:51:33;;;;;;;9.82;8.85;;;16.20;97.30;;;;;;3594841;39;20084;-78
2021/06/06 11:54:04;;;;;;;11.80;10.52;;;16.20;97.30;;;;;;3595681;40;20035;-78
2021/06/06 11:56:39;;;;;;;9.55;8.60;;;16.20;97.20;;;;;;3593895;39;20338;-80
2021/06/06 11:59:21;;;;;;;12.10;9.68;;;16.20;97.20;;;;;;3587979;40;20051;-79
2021/06/06 12:01:59;;;;;;;10.48;9.48;;;16.20;97.20;;;;;;3591807;39;20424;-78
2021/06/06 12:04:32;;;;;;;9.02;8.23;;;16.20;97.30;;;;;;3592713;39;20047;-79
2021/06/06 12:07:04;;;;;;;8.50;7.70;;;16.30;97.30;;;;;;3592523;39;20056;-80
2021/06/06 12:09:40;;;;;;;7.85;6.78;;;16.30;97.30;;;;;;3595271;39;20351;-79
2021/06/06 12:12:16;;;;;;;8.02;6.93;;;16.40;97.30;;;;;;3593201;39;20044;-77
2021/06/06 12:14:43;;;;;;;8.20;7.50;;;16.40;97.20;;;;;;3584628;39;20325;-79
2021/06/06 12:17:29;;;;;;;7.35;6.65;;;16.40;97.20;;;;;;3592840;40;20047;-79
2021/06/06 12:19:59;;;;;;;10.23;7.30;;;16.40;97.20;;;;;;3591541;40;20035;-79
2021/06/06 12:22:32;;;;;;;7.97;7.35;;;16.40;97.30;;;;;;3592990;39;20056;-79
2021/06/06 12:25:14;;;;;;;6.25;5.72;;;16.40;97.20;;;;;;3594484;40;20411;-79
2021/06/06 12:28:19;;;;;;;5.47;5.07;;;16.40;97.20;;;;;;3595124;39;20072;-79
2021/06/06 12:30:48;;;;;;;;;;;16.40;97.10;;;;;;3595279;39;20546;-80
2021/06/06 12:33:25;;;;;;;6.43;5.93;;;16.40;97.00;;;;;;3593163;39;20015;-78
2021/06/06 12:35:54;;;;;;;7.00;6.38;;;16.40;97.10;;;;;;3593624;39;20043;-78
2021/06/06 12:38:23;;;;;;;7.78;7.18;;;16.40;97.20;;;;;;3591113;39;20060;-77
2021/06/06 12:40:50;;;;;;;8.05;7.28;;;16.40;97.50;;;;;;3591067;40;20048;-80
2021/06/06 12:43:21;;;;;;;7.55;6.95;;;16.50;97.20;;;;;;3592145;39;20055;-78
2021/06/06 12:45:47;;;;;;;7.80;7.00;;;16.40;97.10;;;;;;3587613;39;20054;-78
2021/06/06 12:48:24;;;;;;;9.10;8.20;;;16.40;97.20;;;;;;3593683;39;20133;-80
2021/06/06 12:50:53;;;;;;;6.28;5.72;;;16.40;97.20;;;;;;3595727;39;20031;-78
2021/06/06 12:53:19;;;;;;;7.13;6.47;;;16.40;97.20;;;;;;3594239;39;20124;-77
2021/06/06 12:55:46;;;;;;;7.55;6.95;;;16.30;97.10;;;;;;3596278;39;20059;-78